sensor_id;sensor_type;location;lat;lon;timestamp;P1;durP1;ratioP1;P2;durP2;ratioP2
23099;SDS011;53791;50.696;4.396;2023-02-18T00:01:31;3.08;;;1.65;;
23099;SDS011;53791;50.696;4.396;2023-02-18T00:03:59;2.80;;;1.80;;
23099;SDS011;53791;50.696;4.396;2023-02-18T00:06:28;3.08;;;2.22;;
23099;SDS011;53791;50.696;4.396;2023-02-18T00:08:58;2.77;;;2.27;;
23099;SDS011;53791;50.696;4.396;2023-02-18T00:11:27;2.98;;;2.20;;
23099;SDS011;53791;50.696;4.396;2023-02-18T00:13:57;4.30;;;2.08;;
23099;SDS011;53791;50.696;4.396;2023-02-18T00:16:26;2.70;;;1.82;;
23099;SDS011;53791;50.696;4.396;2023-02-18T00:19:00;2.85;;;1.92;;
23099;SDS011;53791;50.696;4.396;2023-02-18T00:21:25;3.45;;;1.92;;
23099;SDS011;53791;50.696;4.396;2023-02-18T00:23:54;1.92;;;1.25;;
23099;SDS011;53791;50.696;4.396;2023-02-18T00:26:21;2.47;;;1.82;;
23099;SDS011;53791;50.696;4.396;2023-02-18T00:28:49;2.42;;;2.00;;
23099;SDS011;53791;50.696;4.396;2023-02-18T00:31:19;2.37;;;1.82;;
23099;SDS011;53791;50.696;4.396;2023-02-18T00:33:51;2.50;;;1.95;;
23099;SDS011;53791;50.696;4.396;2023-02-18T00:36:20;3.17;;;1.92;;
23099;SDS011;53791;50.696;4.396;2023-02-18T00:38:50;3.45;;;2.20;;
23099;SDS011;53791;50.696;4.396;2023-02-18T00:41:20;2.58;;;1.75;;
23099;SDS011;53791;50.696;4.396;2023-02-18T00:43:49;2.35;;;1.62;;
23099;SDS011;53791;50.696;4.396;2023-02-18T00:46:16;2.35;;;1.65;;
23099;SDS011;53791;50.696;4.396;2023-02-18T00:48:44;2.85;;;1.87;;
23099;SDS011;53791;50.696;4.396;2023-02-18T00:51:12;1.70;;;1.20;;
23099;SDS011;53791;50.696;4.396;2023-02-18T00:53:39;2.10;;;1.50;;
23099;SDS011;53791;50.696;4.396;2023-02-18T00:56:07;4.25;;;1.95;;
23099;SDS011;53791;50.696;4.396;2023-02-18T00:58:35;1.70;;;1.20;;
23099;SDS011;53791;50.696;4.396;2023-02-18T01:01:03;2.12;;;1.77;;
23099;SDS011;53791;50.696;4.396;2023-02-18T01:03:32;2.00;;;1.62;;
23099;SDS011;53791;50.696;4.396;2023-02-18T01:06:00;2.08;;;1.60;;
23099;SDS011;53791;50.696;4.396;2023-02-18T01:08:28;2.83;;;1.98;;
23099;SDS011;53791;50.696;4.396;2023-02-18T01:10:56;2.00;;;1.65;;
23099;SDS011;53791;50.696;4.396;2023-02-18T01:13:25;2.50;;;1.67;;
23099;SDS011;53791;50.696;4.396;2023-02-18T01:15:53;3.15;;;2.15;;
23099;SDS011;53791;50.696;4.396;2023-02-18T01:18:20;1.90;;;1.60;;
23099;SDS011;53791;50.696;4.396;2023-02-18T01:20:48;2.20;;;1.82;;
23099;SDS011;53791;50.696;4.396;2023-02-18T01:23:16;2.22;;;1.90;;
23099;SDS011;53791;50.696;4.396;2023-02-18T01:25:45;2.85;;;2.00;;
23099;SDS011;53791;50.696;4.396;2023-02-18T01:28:13;2.20;;;1.85;;
23099;SDS011;53791;50.696;4.396;2023-02-18T01:30:41;2.50;;;1.75;;
23099;SDS011;53791;50.696;4.396;2023-02-18T01:33:08;2.15;;;1.95;;
23099;SDS011;53791;50.696;4.396;2023-02-18T01:35:37;2.00;;;1.80;;
23099;SDS011;53791;50.696;4.396;2023-02-18T01:38:05;2.52;;;2.20;;
23099;SDS011;53791;50.696;4.396;2023-02-18T01:40:33;3.08;;;2.17;;
23099;SDS011;53791;50.696;4.396;2023-02-18T01:43:02;2.60;;;1.80;;
23099;SDS011;53791;50.696;4.396;2023-02-18T01:48:07;2.80;;;2.50;;
23099;SDS011;53791;50.696;4.396;2023-02-18T01:50:38;2.40;;;2.20;;
23099;SDS011;53791;50.696;4.396;2023-02-18T01:53:17;2.10;;;1.90;;
23099;SDS011;53791;50.696;4.396;2023-02-18T01:55:46;2.00;;;1.80;;
23099;SDS011;53791;50.696;4.396;2023-02-18T01:58:15;2.40;;;2.02;;
23099;SDS011;53791;50.696;4.396;2023-02-18T02:00:43;2.50;;;1.80;;
23099;SDS011;53791;50.696;4.396;2023-02-18T02:03:11;2.00;;;1.80;;
23099;SDS011;53791;50.696;4.396;2023-02-18T02:05:38;2.00;;;1.75;;
23099;SDS011;53791;50.696;4.396;2023-02-18T02:08:06;2.00;;;1.80;;
23099;SDS011;53791;50.696;4.396;2023-02-18T02:13:55;2.15;;;1.90;;
23099;SDS011;53791;50.696;4.396;2023-02-18T02:16:29;3.85;;;2.10;;
23099;SDS011;53791;50.696;4.396;2023-02-18T02:21:50;2.10;;;1.90;;
23099;SDS011;53791;50.696;4.396;2023-02-18T02:27:23;2.15;;;1.92;;
23099;SDS011;53791;50.696;4.396;2023-02-18T02:30:00;2.10;;;1.90;;
23099;SDS011;53791;50.696;4.396;2023-02-18T02:46:26;2.00;;;1.70;;
23099;SDS011;53791;50.696;4.396;2023-02-18T02:49:04;2.27;;;1.95;;
23099;SDS011;53791;50.696;4.396;2023-02-18T02:51:45;2.25;;;1.57;;
23099;SDS011;53791;50.696;4.396;2023-02-18T02:59:47;2.77;;;2.50;;
23099;SDS011;53791;50.696;4.396;2023-02-18T03:02:22;2.40;;;2.08;;
23099;SDS011;53791;50.696;4.396;2023-02-18T03:05:19;2.10;;;1.90;;
23099;SDS011;53791;50.696;4.396;2023-02-18T03:08:12;2.20;;;2.00;;
23099;SDS011;53791;50.696;4.396;2023-02-18T03:11:02;2.17;;;1.98;;
23099;SDS011;53791;50.696;4.396;2023-02-18T03:16:25;2.52;;;2.33;;
23099;SDS011;53791;50.696;4.396;2023-02-18T03:19:09;2.40;;;2.00;;
23099;SDS011;53791;50.696;4.396;2023-02-18T03:22:00;2.22;;;2.00;;
23099;SDS011;53791;50.696;4.396;2023-02-18T03:24:36;2.50;;;1.98;;
23099;SDS011;53791;50.696;4.396;2023-02-18T03:27:13;4.55;;;2.70;;
23099;SDS011;53791;50.696;4.396;2023-02-18T03:29:42;2.12;;;1.90;;
23099;SDS011;53791;50.696;4.396;2023-02-18T03:32:13;2.20;;;1.90;;
23099;SDS011;53791;50.696;4.396;2023-02-18T03:34:45;2.25;;;2.05;;
23099;SDS011;53791;50.696;4.396;2023-02-18T03:37:14;2.30;;;2.08;;
23099;SDS011;53791;50.696;4.396;2023-02-18T03:39:45;2.60;;;2.10;;
23099;SDS011;53791;50.696;4.396;2023-02-18T03:42:15;2.50;;;2.30;;
23099;SDS011;53791;50.696;4.396;2023-02-18T03:44:43;2.72;;;2.33;;
23099;SDS011;53791;50.696;4.396;2023-02-18T03:47:11;2.00;;;1.75;;
23099;SDS011;53791;50.696;4.396;2023-02-18T03:49:39;2.00;;;1.80;;
23099;SDS011;53791;50.696;4.396;2023-02-18T03:52:08;2.20;;;1.92;;
23099;SDS011;53791;50.696;4.396;2023-02-18T03:54:37;2.25;;;1.90;;
23099;SDS011;53791;50.696;4.396;2023-02-18T03:57:04;2.02;;;1.82;;
23099;SDS011;53791;50.696;4.396;2023-02-18T03:59:32;3.02;;;2.15;;
23099;SDS011;53791;50.696;4.396;2023-02-18T04:01:59;2.25;;;2.05;;
23099;SDS011;53791;50.696;4.396;2023-02-18T04:04:27;2.25;;;2.02;;
23099;SDS011;53791;50.696;4.396;2023-02-18T04:06:55;2.00;;;1.75;;
23099;SDS011;53791;50.696;4.396;2023-02-18T04:09:23;3.15;;;2.52;;
23099;SDS011;53791;50.696;4.396;2023-02-18T04:11:50;2.52;;;2.10;;
23099;SDS011;53791;50.696;4.396;2023-02-18T04:14:18;4.03;;;2.72;;
23099;SDS011;53791;50.696;4.396;2023-02-18T04:16:45;2.52;;;2.22;;
23099;SDS011;53791;50.696;4.396;2023-02-18T04:19:13;5.05;;;2.75;;
23099;SDS011;53791;50.696;4.396;2023-02-18T04:21:41;2.15;;;1.87;;
23099;SDS011;53791;50.696;4.396;2023-02-18T04:24:08;2.52;;;2.33;;
23099;SDS011;53791;50.696;4.396;2023-02-18T04:26:36;2.35;;;2.15;;
23099;SDS011;53791;50.696;4.396;2023-02-18T04:29:03;2.40;;;2.10;;
23099;SDS011;53791;50.696;4.396;2023-02-18T04:31:31;2.10;;;1.90;;
23099;SDS011;53791;50.696;4.396;2023-02-18T04:33:58;3.15;;;2.60;;
23099;SDS011;53791;50.696;4.396;2023-02-18T04:36:26;2.72;;;2.52;;
23099;SDS011;53791;50.696;4.396;2023-02-18T04:38:53;4.05;;;3.65;;
23099;SDS011;53791;50.696;4.396;2023-02-18T04:41:21;5.75;;;3.70;;
23099;SDS011;53791;50.696;4.396;2023-02-18T04:43:48;4.05;;;3.25;;
23099;SDS011;53791;50.696;4.396;2023-02-18T04:46:16;9.53;;;4.92;;
23099;SDS011;53791;50.696;4.396;2023-02-18T04:48:43;3.47;;;3.17;;
23099;SDS011;53791;50.696;4.396;2023-02-18T04:51:11;4.53;;;4.10;;
23099;SDS011;53791;50.696;4.396;2023-02-18T04:53:39;4.60;;;3.62;;
23099;SDS011;53791;50.696;4.396;2023-02-18T04:56:06;5.28;;;3.60;;
23099;SDS011;53791;50.696;4.396;2023-02-18T04:58:34;6.65;;;4.37;;
23099;SDS011;53791;50.696;4.396;2023-02-18T05:01:01;4.28;;;3.87;;
23099;SDS011;53791;50.696;4.396;2023-02-18T05:03:30;7.87;;;3.87;;
23099;SDS011;53791;50.696;4.396;2023-02-18T05:05:58;3.80;;;2.98;;
23099;SDS011;53791;50.696;4.396;2023-02-18T05:08:25;5.90;;;3.22;;
23099;SDS011;53791;50.696;4.396;2023-02-18T05:10:53;3.05;;;2.75;;
23099;SDS011;53791;50.696;4.396;2023-02-18T05:13:21;2.50;;;2.30;;
23099;SDS011;53791;50.696;4.396;2023-02-18T05:15:49;2.92;;;2.62;;
23099;SDS011;53791;50.696;4.396;2023-02-18T05:18:17;5.45;;;3.17;;
23099;SDS011;53791;50.696;4.396;2023-02-18T05:20:44;2.62;;;2.42;;
23099;SDS011;53791;50.696;4.396;2023-02-18T05:23:12;2.30;;;2.10;;
23099;SDS011;53791;50.696;4.396;2023-02-18T05:25:39;2.20;;;2.00;;
23099;SDS011;53791;50.696;4.396;2023-02-18T05:28:07;6.08;;;2.10;;
23099;SDS011;53791;50.696;4.396;2023-02-18T05:30:36;2.25;;;2.05;;
23099;SDS011;53791;50.696;4.396;2023-02-18T05:33:04;2.87;;;2.58;;
23099;SDS011;53791;50.696;4.396;2023-02-18T05:35:31;2.50;;;2.30;;
23099;SDS011;53791;50.696;4.396;2023-02-18T05:37:59;2.60;;;2.40;;
23099;SDS011;53791;50.696;4.396;2023-02-18T05:40:26;2.20;;;2.00;;
23099;SDS011;53791;50.696;4.396;2023-02-18T05:42:54;2.60;;;2.40;;
23099;SDS011;53791;50.696;4.396;2023-02-18T05:45:21;2.70;;;2.50;;
23099;SDS011;53791;50.696;4.396;2023-02-18T05:47:49;2.72;;;2.50;;
23099;SDS011;53791;50.696;4.396;2023-02-18T05:50:16;2.42;;;2.22;;
23099;SDS011;53791;50.696;4.396;2023-02-18T05:52:44;2.85;;;2.55;;
23099;SDS011;53791;50.696;4.396;2023-02-18T05:55:12;2.50;;;2.30;;
23099;SDS011;53791;50.696;4.396;2023-02-18T05:57:39;2.37;;;2.17;;
23099;SDS011;53791;50.696;4.396;2023-02-18T06:00:07;2.10;;;1.90;;
23099;SDS011;53791;50.696;4.396;2023-02-18T06:02:35;2.47;;;2.25;;
23099;SDS011;53791;50.696;4.396;2023-02-18T06:05:03;2.30;;;2.10;;
23099;SDS011;53791;50.696;4.396;2023-02-18T06:07:31;3.58;;;3.02;;
23099;SDS011;53791;50.696;4.396;2023-02-18T06:09:59;2.58;;;2.37;;
23099;SDS011;53791;50.696;4.396;2023-02-18T06:12:26;2.55;;;2.35;;
23099;SDS011;53791;50.696;4.396;2023-02-18T06:14:54;2.25;;;2.05;;
23099;SDS011;53791;50.696;4.396;2023-02-18T06:17:22;3.17;;;2.60;;
23099;SDS011;53791;50.696;4.396;2023-02-18T06:19:49;4.50;;;3.05;;
23099;SDS011;53791;50.696;4.396;2023-02-18T06:22:17;2.12;;;1.92;;
23099;SDS011;53791;50.696;4.396;2023-02-18T06:24:44;2.20;;;2.00;;
23099;SDS011;53791;50.696;4.396;2023-02-18T06:27:12;2.75;;;2.25;;
23099;SDS011;53791;50.696;4.396;2023-02-18T06:29:39;2.58;;;2.37;;
23099;SDS011;53791;50.696;4.396;2023-02-18T06:32:08;2.67;;;2.20;;
23099;SDS011;53791;50.696;4.396;2023-02-18T06:34:36;2.33;;;1.92;;
23099;SDS011;53791;50.696;4.396;2023-02-18T06:37:03;2.45;;;2.00;;
23099;SDS011;53791;50.696;4.396;2023-02-18T06:39:31;1.90;;;1.60;;
23099;SDS011;53791;50.696;4.396;2023-02-18T06:41:58;3.05;;;2.45;;
23099;SDS011;53791;50.696;4.396;2023-02-18T06:44:26;3.75;;;2.27;;
23099;SDS011;53791;50.696;4.396;2023-02-18T06:46:53;2.00;;;1.60;;
23099;SDS011;53791;50.696;4.396;2023-02-18T06:49:21;2.00;;;1.60;;
23099;SDS011;53791;50.696;4.396;2023-02-18T06:51:50;2.20;;;1.80;;
23099;SDS011;53791;50.696;4.396;2023-02-18T06:54:18;2.12;;;1.77;;
23099;SDS011;53791;50.696;4.396;2023-02-18T06:56:45;3.02;;;2.10;;
23099;SDS011;53791;50.696;4.396;2023-02-18T06:59:13;3.00;;;2.15;;
23099;SDS011;53791;50.696;4.396;2023-02-18T07:01:40;2.37;;;1.75;;
23099;SDS011;53791;50.696;4.396;2023-02-18T07:04:08;2.50;;;2.10;;
23099;SDS011;53791;50.696;4.396;2023-02-18T07:06:35;3.25;;;2.47;;
23099;SDS011;53791;50.696;4.396;2023-02-18T07:09:03;4.20;;;2.67;;
23099;SDS011;53791;50.696;4.396;2023-02-18T07:11:32;6.87;;;2.70;;
23099;SDS011;53791;50.696;4.396;2023-02-18T07:14:02;3.55;;;2.12;;
23099;SDS011;53791;50.696;4.396;2023-02-18T07:16:33;9.70;;;2.15;;
23099;SDS011;53791;50.696;4.396;2023-02-18T07:19:01;4.62;;;2.27;;
23099;SDS011;53791;50.696;4.396;2023-02-18T07:21:28;3.08;;;2.45;;
23099;SDS011;53791;50.696;4.396;2023-02-18T07:23:55;2.85;;;2.17;;
23099;SDS011;53791;50.696;4.396;2023-02-18T07:26:23;3.15;;;2.37;;
23099;SDS011;53791;50.696;4.396;2023-02-18T07:28:51;3.55;;;2.05;;
23099;SDS011;53791;50.696;4.396;2023-02-18T07:31:18;1.90;;;1.52;;
23099;SDS011;53791;50.696;4.396;2023-02-18T07:33:46;2.37;;;1.77;;
23099;SDS011;53791;50.696;4.396;2023-02-18T07:36:13;5.42;;;2.30;;
23099;SDS011;53791;50.696;4.396;2023-02-18T07:38:41;3.25;;;2.22;;
23099;SDS011;53791;50.696;4.396;2023-02-18T07:41:20;2.17;;;1.70;;
23099;SDS011;53791;50.696;4.396;2023-02-18T07:43:45;5.45;;;2.15;;
23099;SDS011;53791;50.696;4.396;2023-02-18T07:46:13;29.02;;;2.90;;
23099;SDS011;53791;50.696;4.396;2023-02-18T07:48:41;1.82;;;1.50;;
23099;SDS011;53791;50.696;4.396;2023-02-18T07:51:10;3.35;;;2.00;;
23099;SDS011;53791;50.696;4.396;2023-02-18T07:53:38;3.75;;;2.08;;
23099;SDS011;53791;50.696;4.396;2023-02-18T07:56:06;2.00;;;1.67;;
23099;SDS011;53791;50.696;4.396;2023-02-18T07:58:35;1.87;;;1.47;;
23099;SDS011;53791;50.696;4.396;2023-02-18T08:01:07;3.52;;;2.30;;
23099;SDS011;53791;50.696;4.396;2023-02-18T08:03:37;2.08;;;1.77;;
23099;SDS011;53791;50.696;4.396;2023-02-18T08:06:04;2.20;;;1.60;;
23099;SDS011;53791;50.696;4.396;2023-02-18T08:08:32;2.20;;;1.70;;
23099;SDS011;53791;50.696;4.396;2023-02-18T08:11:01;3.35;;;1.85;;
23099;SDS011;53791;50.696;4.396;2023-02-18T08:13:31;2.65;;;1.82;;
23099;SDS011;53791;50.696;4.396;2023-02-18T08:15:59;5.40;;;2.30;;
23099;SDS011;53791;50.696;4.396;2023-02-18T08:21:06;4.75;;;1.75;;
23099;SDS011;53791;50.696;4.396;2023-02-18T08:23:33;2.30;;;1.82;;
23099;SDS011;53791;50.696;4.396;2023-02-18T08:26:01;2.47;;;1.92;;
23099;SDS011;53791;50.696;4.396;2023-02-18T08:28:28;2.22;;;1.62;;
23099;SDS011;53791;50.696;4.396;2023-02-18T08:30:56;8.80;;;2.27;;
23099;SDS011;53791;50.696;4.396;2023-02-18T08:33:24;2.05;;;1.70;;
23099;SDS011;53791;50.696;4.396;2023-02-18T08:35:52;2.65;;;2.22;;
23099;SDS011;53791;50.696;4.396;2023-02-18T08:38:22;2.00;;;1.60;;
23099;SDS011;53791;50.696;4.396;2023-02-18T08:40:59;2.60;;;2.40;;
23099;SDS011;53791;50.696;4.396;2023-02-18T08:43:21;3.37;;;2.30;;
23099;SDS011;53791;50.696;4.396;2023-02-18T08:45:49;2.10;;;1.85;;
23099;SDS011;53791;50.696;4.396;2023-02-18T08:48:16;3.95;;;1.80;;
23099;SDS011;53791;50.696;4.396;2023-02-18T08:50:44;2.12;;;1.70;;
23099;SDS011;53791;50.696;4.396;2023-02-18T08:53:11;2.02;;;1.72;;
23099;SDS011;53791;50.696;4.396;2023-02-18T08:55:41;2.75;;;2.10;;
23099;SDS011;53791;50.696;4.396;2023-02-18T08:58:08;2.10;;;1.82;;
23099;SDS011;53791;50.696;4.396;2023-02-18T09:00:36;2.45;;;2.12;;
23099;SDS011;53791;50.696;4.396;2023-02-18T09:03:04;1.90;;;1.60;;
23099;SDS011;53791;50.696;4.396;2023-02-18T09:05:32;2.33;;;1.75;;
23099;SDS011;53791;50.696;4.396;2023-02-18T09:08:00;1.90;;;1.55;;
23099;SDS011;53791;50.696;4.396;2023-02-18T09:10:27;2.85;;;1.98;;
23099;SDS011;53791;50.696;4.396;2023-02-18T09:12:55;4.75;;;2.47;;
23099;SDS011;53791;50.696;4.396;2023-02-18T09:15:22;2.35;;;1.72;;
23099;SDS011;53791;50.696;4.396;2023-02-18T09:17:50;1.80;;;1.40;;
23099;SDS011;53791;50.696;4.396;2023-02-18T09:20:17;1.80;;;1.50;;
23099;SDS011;53791;50.696;4.396;2023-02-18T09:22:46;1.90;;;1.50;;
23099;SDS011;53791;50.696;4.396;2023-02-18T09:25:13;1.80;;;1.47;;
23099;SDS011;53791;50.696;4.396;2023-02-18T09:27:41;2.00;;;1.60;;
23099;SDS011;53791;50.696;4.396;2023-02-18T09:30:08;1.70;;;1.20;;
23099;SDS011;53791;50.696;4.396;2023-02-18T09:32:36;2.87;;;1.98;;
23099;SDS011;53791;50.696;4.396;2023-02-18T09:35:04;3.37;;;2.15;;
23099;SDS011;53791;50.696;4.396;2023-02-18T09:37:31;1.82;;;1.40;;
23099;SDS011;53791;50.696;4.396;2023-02-18T09:40:00;1.80;;;1.40;;
23099;SDS011;53791;50.696;4.396;2023-02-18T09:42:29;6.60;;;2.35;;
23099;SDS011;53791;50.696;4.396;2023-02-18T09:44:59;2.90;;;1.90;;
23099;SDS011;53791;50.696;4.396;2023-02-18T09:47:34;1.80;;;1.30;;
23099;SDS011;53791;50.696;4.396;2023-02-18T09:50:07;1.80;;;1.32;;
23099;SDS011;53791;50.696;4.396;2023-02-18T09:52:48;1.90;;;1.50;;
23099;SDS011;53791;50.696;4.396;2023-02-18T09:55:24;1.98;;;1.57;;
23099;SDS011;53791;50.696;4.396;2023-02-18T09:58:12;1.82;;;1.45;;
23099;SDS011;53791;50.696;4.396;2023-02-18T10:00:43;1.85;;;1.47;;
23099;SDS011;53791;50.696;4.396;2023-02-18T10:03:14;2.00;;;1.60;;
23099;SDS011;53791;50.696;4.396;2023-02-18T10:08:33;4.58;;;1.98;;
23099;SDS011;53791;50.696;4.396;2023-02-18T10:11:03;1.98;;;1.50;;
23099;SDS011;53791;50.696;4.396;2023-02-18T10:13:34;2.05;;;1.60;;
23099;SDS011;53791;50.696;4.396;2023-02-18T10:16:01;1.90;;;1.40;;
23099;SDS011;53791;50.696;4.396;2023-02-18T10:18:32;1.90;;;1.40;;
23099;SDS011;53791;50.696;4.396;2023-02-18T10:21:07;1.80;;;1.40;;
23099;SDS011;53791;50.696;4.396;2023-02-18T10:23:32;1.82;;;1.47;;
23099;SDS011;53791;50.696;4.396;2023-02-18T10:26:03;2.25;;;1.77;;
23099;SDS011;53791;50.696;4.396;2023-02-18T10:28:33;1.70;;;1.20;;
23099;SDS011;53791;50.696;4.396;2023-02-18T10:31:08;1.90;;;1.55;;
23099;SDS011;53791;50.696;4.396;2023-02-18T10:33:52;2.20;;;1.42;;
23099;SDS011;53791;50.696;4.396;2023-02-18T10:36:33;1.90;;;1.50;;
23099;SDS011;53791;50.696;4.396;2023-02-18T10:44:37;2.30;;;1.80;;
23099;SDS011;53791;50.696;4.396;2023-02-18T10:47:31;2.00;;;1.40;;
23099;SDS011;53791;50.696;4.396;2023-02-18T10:50:02;1.90;;;1.50;;
23099;SDS011;53791;50.696;4.396;2023-02-18T10:52:28;2.30;;;1.90;;
23099;SDS011;53791;50.696;4.396;2023-02-18T10:55:02;3.12;;;2.12;;
23099;SDS011;53791;50.696;4.396;2023-02-18T10:57:32;2.12;;;1.57;;
23099;SDS011;53791;50.696;4.396;2023-02-18T11:00:03;3.27;;;2.25;;
23099;SDS011;53791;50.696;4.396;2023-02-18T11:02:38;2.35;;;1.80;;
23099;SDS011;53791;50.696;4.396;2023-02-18T11:05:17;2.85;;;1.87;;
23099;SDS011;53791;50.696;4.396;2023-02-18T11:07:46;2.60;;;1.77;;
23099;SDS011;53791;50.696;4.396;2023-02-18T11:10:26;1.98;;;1.52;;
23099;SDS011;53791;50.696;4.396;2023-02-18T11:13:02;3.25;;;1.98;;
23099;SDS011;53791;50.696;4.396;2023-02-18T11:15:29;3.58;;;2.25;;
23099;SDS011;53791;50.696;4.396;2023-02-18T11:20:56;1.80;;;1.30;;
23099;SDS011;53791;50.696;4.396;2023-02-18T11:23:25;1.70;;;1.20;;
23099;SDS011;53791;50.696;4.396;2023-02-18T11:25:57;2.30;;;1.75;;
23099;SDS011;53791;50.696;4.396;2023-02-18T11:28:36;1.80;;;1.40;;
23099;SDS011;53791;50.696;4.396;2023-02-18T11:31:22;2.35;;;1.37;;
23099;SDS011;53791;50.696;4.396;2023-02-18T11:33:56;2.40;;;1.67;;
23099;SDS011;53791;50.696;4.396;2023-02-18T11:36:36;1.70;;;1.27;;
23099;SDS011;53791;50.696;4.396;2023-02-18T11:39:04;1.98;;;1.47;;
23099;SDS011;53791;50.696;4.396;2023-02-18T11:41:41;3.27;;;1.90;;
23099;SDS011;53791;50.696;4.396;2023-02-18T11:44:18;2.10;;;1.70;;
23099;SDS011;53791;50.696;4.396;2023-02-18T11:47:01;2.25;;;1.47;;
23099;SDS011;53791;50.696;4.396;2023-02-18T11:49:30;3.87;;;1.72;;
23099;SDS011;53791;50.696;4.396;2023-02-18T11:52:08;1.80;;;1.40;;
23099;SDS011;53791;50.696;4.396;2023-02-18T11:57:42;3.42;;;2.02;;
23099;SDS011;53791;50.696;4.396;2023-02-18T12:00:40;3.87;;;2.40;;
23099;SDS011;53791;50.696;4.396;2023-02-18T12:03:34;2.42;;;1.82;;
23099;SDS011;53791;50.696;4.396;2023-02-18T12:05:40;3.25;;;1.90;;
23099;SDS011;53791;50.696;4.396;2023-02-18T12:08:16;5.45;;;1.90;;
23099;SDS011;53791;50.696;4.396;2023-02-18T12:10:47;4.35;;;2.20;;
23099;SDS011;53791;50.696;4.396;2023-02-18T12:13:23;2.10;;;1.60;;
23099;SDS011;53791;50.696;4.396;2023-02-18T12:15:56;1.70;;;1.27;;
23099;SDS011;53791;50.696;4.396;2023-02-18T12:18:32;1.87;;;1.47;;
23099;SDS011;53791;50.696;4.396;2023-02-18T12:23:56;2.40;;;1.50;;
23099;SDS011;53791;50.696;4.396;2023-02-18T12:26:29;2.22;;;1.35;;
23099;SDS011;53791;50.696;4.396;2023-02-18T12:32:09;1.90;;;1.40;;
23099;SDS011;53791;50.696;4.396;2023-02-18T12:34:46;2.47;;;1.50;;
23099;SDS011;53791;50.696;4.396;2023-02-18T12:37:29;1.90;;;1.42;;
23099;SDS011;53791;50.696;4.396;2023-02-18T12:48:30;2.22;;;1.60;;
23099;SDS011;53791;50.696;4.396;2023-02-18T12:54:10;2.90;;;1.95;;
23099;SDS011;53791;50.696;4.396;2023-02-18T12:56:46;1.80;;;1.40;;
23099;SDS011;53791;50.696;4.396;2023-02-18T12:59:47;2.45;;;1.72;;
23099;SDS011;53791;50.696;4.396;2023-02-18T13:05:29;2.92;;;1.65;;
23099;SDS011;53791;50.696;4.396;2023-02-18T13:11:07;2.10;;;1.72;;
23099;SDS011;53791;50.696;4.396;2023-02-18T13:16:42;3.47;;;2.25;;
23099;SDS011;53791;50.696;4.396;2023-02-18T13:19:40;1.80;;;1.40;;
23099;SDS011;53791;50.696;4.396;2023-02-18T13:22:01;2.02;;;1.52;;
23099;SDS011;53791;50.696;4.396;2023-02-18T13:24:34;1.80;;;1.40;;
23099;SDS011;53791;50.696;4.396;2023-02-18T13:29:47;2.40;;;1.65;;
23099;SDS011;53791;50.696;4.396;2023-02-18T13:35:08;1.90;;;1.40;;
23099;SDS011;53791;50.696;4.396;2023-02-18T13:37:44;1.80;;;1.40;;
23099;SDS011;53791;50.696;4.396;2023-02-18T13:40:26;2.27;;;1.52;;
23099;SDS011;53791;50.696;4.396;2023-02-18T13:45:48;2.27;;;1.57;;
23099;SDS011;53791;50.696;4.396;2023-02-18T13:48:26;2.00;;;1.57;;
23099;SDS011;53791;50.696;4.396;2023-02-18T13:50:58;2.42;;;1.82;;
23099;SDS011;53791;50.696;4.396;2023-02-18T13:53:28;2.95;;;1.47;;
23099;SDS011;53791;50.696;4.396;2023-02-18T13:56:08;1.77;;;1.35;;
23099;SDS011;53791;50.696;4.396;2023-02-18T13:58:36;2.83;;;1.57;;
23099;SDS011;53791;50.696;4.396;2023-02-18T14:01:18;2.50;;;1.95;;
23099;SDS011;53791;50.696;4.396;2023-02-18T14:06:33;1.82;;;1.40;;
23099;SDS011;53791;50.696;4.396;2023-02-18T14:09:02;2.65;;;1.90;;
23099;SDS011;53791;50.696;4.396;2023-02-18T14:11:32;3.35;;;1.77;;
23099;SDS011;53791;50.696;4.396;2023-02-18T14:14:35;4.92;;;1.87;;
23099;SDS011;53791;50.696;4.396;2023-02-18T14:19:39;3.90;;;1.87;;
23099;SDS011;53791;50.696;4.396;2023-02-18T14:22:26;2.22;;;1.62;;
23099;SDS011;53791;50.696;4.396;2023-02-18T14:27:38;3.15;;;2.47;;
23099;SDS011;53791;50.696;4.396;2023-02-18T14:30:18;3.65;;;2.37;;
23099;SDS011;53791;50.696;4.396;2023-02-18T14:32:51;4.60;;;2.10;;
23099;SDS011;53791;50.696;4.396;2023-02-18T14:35:38;1.95;;;1.40;;
23099;SDS011;53791;50.696;4.396;2023-02-18T14:38:22;3.00;;;1.95;;
23099;SDS011;53791;50.696;4.396;2023-02-18T14:41:18;1.72;;;1.30;;
23099;SDS011;53791;50.696;4.396;2023-02-18T14:43:54;3.17;;;2.00;;
23099;SDS011;53791;50.696;4.396;2023-02-18T14:54:54;2.42;;;2.02;;
23099;SDS011;53791;50.696;4.396;2023-02-18T14:57:33;3.98;;;2.47;;
23099;SDS011;53791;50.696;4.396;2023-02-18T15:00:15;4.33;;;3.15;;
23099;SDS011;53791;50.696;4.396;2023-02-18T15:02:49;4.50;;;3.00;;
23099;SDS011;53791;50.696;4.396;2023-02-18T15:05:19;4.87;;;3.98;;
23099;SDS011;53791;50.696;4.396;2023-02-18T15:11:12;5.75;;;4.55;;
23099;SDS011;53791;50.696;4.396;2023-02-18T15:13:40;3.17;;;2.52;;
23099;SDS011;53791;50.696;4.396;2023-02-18T15:16:23;6.37;;;4.62;;
23099;SDS011;53791;50.696;4.396;2023-02-18T15:18:51;6.22;;;3.80;;
23099;SDS011;53791;50.696;4.396;2023-02-18T15:21:23;4.37;;;2.33;;
23099;SDS011;53791;50.696;4.396;2023-02-18T15:23:51;3.40;;;2.45;;
23099;SDS011;53791;50.696;4.396;2023-02-18T15:26:19;2.40;;;2.10;;
23099;SDS011;53791;50.696;4.396;2023-02-18T15:31:35;3.70;;;2.02;;
23099;SDS011;53791;50.696;4.396;2023-02-18T15:34:26;2.25;;;1.72;;
23099;SDS011;53791;50.696;4.396;2023-02-18T15:36:55;2.70;;;2.42;;
23099;SDS011;53791;50.696;4.396;2023-02-18T15:39:19;3.30;;;2.08;;
23099;SDS011;53791;50.696;4.396;2023-02-18T15:44:27;3.42;;;2.90;;
23099;SDS011;53791;50.696;4.396;2023-02-18T15:47:04;3.75;;;2.10;;
23099;SDS011;53791;50.696;4.396;2023-02-18T15:49:33;2.67;;;2.05;;
23099;SDS011;53791;50.696;4.396;2023-02-18T15:52:03;2.12;;;1.60;;
23099;SDS011;53791;50.696;4.396;2023-02-18T15:54:33;2.30;;;1.90;;
23099;SDS011;53791;50.696;4.396;2023-02-18T15:57:04;5.00;;;1.82;;
23099;SDS011;53791;50.696;4.396;2023-02-18T15:59:42;2.70;;;1.98;;
23099;SDS011;53791;50.696;4.396;2023-02-18T16:02:17;5.08;;;2.22;;
23099;SDS011;53791;50.696;4.396;2023-02-18T16:04:52;2.92;;;2.02;;
23099;SDS011;53791;50.696;4.396;2023-02-18T16:07:25;2.12;;;1.80;;
23099;SDS011;53791;50.696;4.396;2023-02-18T16:10:07;3.42;;;2.45;;
23099;SDS011;53791;50.696;4.396;2023-02-18T16:12:48;3.10;;;1.87;;
23099;SDS011;53791;50.696;4.396;2023-02-18T16:15:27;3.27;;;1.70;;
23099;SDS011;53791;50.696;4.396;2023-02-18T16:17:56;2.12;;;1.75;;
23099;SDS011;53791;50.696;4.396;2023-02-18T16:20:35;2.30;;;1.92;;
23099;SDS011;53791;50.696;4.396;2023-02-18T16:23:02;1.85;;;1.50;;
23099;SDS011;53791;50.696;4.396;2023-02-18T16:25:42;2.10;;;1.55;;
23099;SDS011;53791;50.696;4.396;2023-02-18T16:28:16;3.95;;;1.98;;
23099;SDS011;53791;50.696;4.396;2023-02-18T16:30:53;2.00;;;1.50;;
23099;SDS011;53791;50.696;4.396;2023-02-18T16:33:23;2.00;;;1.50;;
23099;SDS011;53791;50.696;4.396;2023-02-18T16:35:50;2.67;;;1.67;;
23099;SDS011;53791;50.696;4.396;2023-02-18T16:38:19;2.10;;;1.52;;
23099;SDS011;53791;50.696;4.396;2023-02-18T16:40:50;2.35;;;1.87;;
23099;SDS011;53791;50.696;4.396;2023-02-18T16:43:22;2.40;;;1.77;;
23099;SDS011;53791;50.696;4.396;2023-02-18T16:48:36;1.90;;;1.42;;
23099;SDS011;53791;50.696;4.396;2023-02-18T16:51:18;1.80;;;1.42;;
23099;SDS011;53791;50.696;4.396;2023-02-18T16:53:52;3.00;;;1.67;;
23099;SDS011;53791;50.696;4.396;2023-02-18T16:56:20;2.25;;;1.60;;
23099;SDS011;53791;50.696;4.396;2023-02-18T16:58:50;1.85;;;1.45;;
23099;SDS011;53791;50.696;4.396;2023-02-18T17:01:29;1.90;;;1.52;;
23099;SDS011;53791;50.696;4.396;2023-02-18T17:03:55;3.00;;;1.77;;
23099;SDS011;53791;50.696;4.396;2023-02-18T17:06:26;2.27;;;1.60;;